Time;durP1;ratioP1;P1;durP2;ratioP2;P2;SDS_P1;SDS_P2;PMS_P1;PMS_P2;Temp;Humidity;BMP_temperature;BMP_pressure;BME280_temperature;BME280_humidity;BME280_pressure;Samples;Min_cycle;Max_cycle;Signal;HPM_P1;HPM_P2
2022/04/03 00:00:56;;;;;;;9.45;4.50;;;-2.20;99.90;;;;;;5047623;28;20049;-69
2022/04/03 00:03:21;;;;;;;9.95;4.32;;;-2.20;99.90;;;;;;5052641;28;20021;-69
2022/04/03 00:05:47;;;;;;;10.00;4.50;;;-2.20;99.90;;;;;;5041109;28;20109;-69
2022/04/03 00:08:13;;;;;;;12.50;5.03;;;-2.10;99.90;;;;;;5056861;28;21411;-69
2022/04/03 00:10:40;;;;;;;12.02;4.82;;;-2.20;99.90;;;;;;5061280;28;20033;-68
2022/04/03 00:13:06;;;;;;;9.35;4.20;;;-2.20;99.90;;;;;;5053680;28;20450;-69
2022/04/03 00:15:33;;;;;;;11.07;4.80;;;-2.10;99.90;;;;;;5063442;28;20055;-68
2022/04/03 00:17:59;;;;;;;10.80;4.65;;;-2.10;99.90;;;;;;5052557;28;20028;-68
2022/04/03 00:20:25;;;;;;;10.63;4.28;;;-2.10;99.90;;;;;;5051690;28;20028;-69
2022/04/03 00:22:52;;;;;;;8.88;4.35;;;-2.10;99.90;;;;;;5056828;28;20017;-68
2022/04/03 00:25:18;;;;;;;8.95;4.32;;;-2.00;99.90;;;;;;5059639;28;20037;-69
2022/04/03 00:27:47;;;;;;;9.82;4.20;;;-1.90;99.90;;;;;;5078807;28;20033;-68
2022/04/03 00:30:14;;;;;;;11.43;4.45;;;-1.90;99.90;;;;;;5060152;28;20024;-68
2022/04/03 00:32:40;;;;;;;11.00;4.90;;;-1.80;99.90;;;;;;5055212;28;20029;-70
2022/04/03 00:35:07;;;;;;;12.85;4.53;;;-1.80;99.90;;;;;;5049277;28;20105;-68
2022/04/03 00:37:33;;;;;;;10.43;4.50;;;-1.80;99.90;;;;;;5058445;28;20072;-68
2022/04/03 00:39:59;;;;;;;9.25;4.07;;;-1.90;99.90;;;;;;5047770;28;20034;-69
2022/04/03 00:42:26;;;;;;;9.18;3.85;;;-1.90;99.90;;;;;;5055769;28;20021;-68
2022/04/03 00:44:51;;;;;;;9.27;4.25;;;-2.00;99.90;;;;;;5051610;28;20021;-69
2022/04/03 00:47:20;;;;;;;10.82;4.50;;;-2.00;99.90;;;;;;5056963;28;20028;-69
2022/04/03 00:49:45;;;;;;;12.10;4.78;;;-2.10;99.90;;;;;;5050947;28;20036;-68
2022/04/03 00:52:11;;;;;;;10.07;4.28;;;-2.10;99.90;;;;;;5048904;28;20497;-68
2022/04/03 00:54:37;;;;;;;11.32;4.22;;;-2.20;99.90;;;;;;5046377;28;20029;-68
2022/04/03 00:57:05;;;;;;;10.02;4.00;;;-2.20;99.90;;;;;;5056965;28;20017;-69
2022/04/03 00:59:31;;;;;;;9.32;4.07;;;-2.10;99.90;;;;;;5049736;28;20085;-68
2022/04/03 01:01:57;;;;;;;13.55;4.60;;;-2.10;99.90;;;;;;5052492;28;20020;-69
2022/04/03 01:04:22;;;;;;;11.20;4.10;;;-2.00;99.90;;;;;;5060838;28;20025;-69
2022/04/03 01:06:48;;;;;;;10.32;4.13;;;-2.00;99.90;;;;;;5050678;28;20887;-68
2022/04/03 01:09:14;;;;;;;11.15;4.60;;;-2.00;99.90;;;;;;5049247;28;20061;-69
2022/04/03 01:11:40;;;;;;;10.18;3.90;;;-1.90;99.90;;;;;;5049610;28;20025;-69
2022/04/03 01:14:06;;;;;;;8.73;3.80;;;-1.80;99.90;;;;;;5048777;28;20100;-69
2022/04/03 01:16:33;;;;;;;9.65;3.92;;;-1.80;99.90;;;;;;5049207;28;20124;-69
2022/04/03 01:18:58;;;;;;;10.20;4.68;;;-1.70;99.90;;;;;;5058505;28;20055;-68
2022/04/03 01:21:24;;;;;;;13.00;4.45;;;-1.70;99.90;;;;;;5028762;28;20029;-69
2022/04/03 01:23:50;;;;;;;13.00;4.57;;;-1.60;99.90;;;;;;5054713;28;20033;-69
2022/04/03 01:26:16;;;;;;;11.80;4.50;;;-1.50;99.90;;;;;;5047659;28;20013;-69
2022/04/03 01:28:43;;;;;;;10.60;4.50;;;-1.40;99.90;;;;;;5040179;28;20087;-69
2022/04/03 01:31:08;;;;;;;10.55;4.82;;;-1.40;99.90;;;;;;5048406;28;20037;-68
2022/04/03 01:33:34;;;;;;;9.82;4.38;;;-1.30;99.90;;;;;;5052433;28;20021;-69
2022/04/03 01:36:00;;;;;;;9.73;4.88;;;-1.20;99.90;;;;;;5048194;28;20033;-68
2022/04/03 01:38:26;;;;;;;11.75;5.25;;;-1.10;99.90;;;;;;5050436;28;20096;-69
2022/04/03 01:40:51;;;;;;;13.05;5.95;;;-1.10;99.90;;;;;;5052938;28;20037;-69
2022/04/03 01:43:17;;;;;;;11.60;5.10;;;-1.00;99.90;;;;;;5052546;28;20037;-68
2022/04/03 01:45:43;;;;;;;10.00;5.28;;;-1.00;99.90;;;;;;5053778;28;20397;-69
2022/04/03 01:48:09;;;;;;;14.45;6.03;;;-1.00;99.90;;;;;;5053952;28;20435;-69
2022/04/03 01:50:35;;;;;;;10.10;5.50;;;-0.90;99.90;;;;;;5058348;28;20047;-68
2022/04/03 01:53:01;;;;;;;10.32;4.90;;;-0.90;99.90;;;;;;5058510;28;20024;-68
2022/04/03 01:55:27;;;;;;;9.13;4.68;;;-0.90;99.90;;;;;;5060084;28;20020;-68
2022/04/03 01:57:54;;;;;;;12.10;5.68;;;-0.90;99.90;;;;;;5064942;28;20032;-69
2022/04/03 02:00:21;;;;;;;10.15;5.00;;;-0.90;99.90;;;;;;5035016;28;20065;-68
2022/04/03 02:02:46;;;;;;;9.02;4.63;;;-0.90;99.90;;;;;;5048123;28;20029;-68
2022/04/03 02:05:12;;;;;;;10.45;5.32;;;-1.00;99.90;;;;;;5056382;28;20025;-70
2022/04/03 02:07:38;;;;;;;12.85;4.70;;;-1.00;99.90;;;;;;5052683;28;20180;-68
2022/04/03 02:10:08;;;;;;;10.52;5.30;;;-1.00;99.90;;;;;;5055619;28;20040;-68
2022/04/03 02:12:35;;;;;;;11.38;5.18;;;-1.00;99.90;;;;;;5057361;28;20043;-69
2022/04/03 02:15:02;;;;;;;9.38;4.93;;;-1.00;99.90;;;;;;5061741;28;20490;-68
2022/04/03 02:17:27;;;;;;;11.68;5.43;;;-1.00;99.90;;;;;;5063242;28;20021;-68
2022/04/03 02:19:54;;;;;;;9.73;4.70;;;-0.90;99.90;;;;;;5061087;28;20024;-69
2022/04/03 02:22:20;;;;;;;11.05;5.05;;;-0.90;99.90;;;;;;5063509;28;20029;-68
2022/04/03 02:24:45;;;;;;;11.00;5.13;;;-0.90;99.90;;;;;;5052337;28;20064;-69
2022/04/03 02:27:11;;;;;;;10.75;4.93;;;-0.90;99.90;;;;;;5069159;28;20029;-69
2022/04/03 02:29:37;;;;;;;8.88;5.07;;;-1.00;99.90;;;;;;5048879;28;20033;-68
2022/04/03 02:32:03;;;;;;;8.30;4.47;;;-1.00;99.90;;;;;;5063271;28;20044;-68
2022/04/03 02:34:29;;;;;;;10.07;4.78;;;-1.00;99.90;;;;;;5049411;28;20906;-68
2022/04/03 02:36:55;;;;;;;10.55;5.20;;;-1.10;99.90;;;;;;5048568;28;20065;-69
2022/04/03 02:39:21;;;;;;;10.20;5.00;;;-1.10;99.90;;;;;;5049179;28;20048;-68
2022/04/03 02:41:47;;;;;;;10.90;5.20;;;-1.10;99.90;;;;;;5057535;28;20485;-69
2022/04/03 02:44:13;;;;;;;9.38;4.70;;;-1.10;99.90;;;;;;5051140;28;20025;-68
2022/04/03 02:46:39;;;;;;;10.20;5.43;;;-1.20;99.90;;;;;;5054925;28;20037;-68
2022/04/03 02:49:05;;;;;;;11.35;5.53;;;-1.20;99.90;;;;;;5049115;28;20028;-69
2022/04/03 02:51:31;;;;;;;11.68;5.35;;;-1.20;99.90;;;;;;5045239;28;20040;-70
2022/04/03 02:53:57;;;;;;;9.77;5.50;;;-1.20;99.90;;;;;;5039782;28;20146;-68
2022/04/03 02:56:22;;;;;;;12.35;5.72;;;-1.20;99.90;;;;;;5044822;28;20043;-68
2022/04/03 02:58:48;;;;;;;10.20;5.13;;;-1.30;99.90;;;;;;5058150;28;20124;-68
2022/04/03 03:01:14;;;;;;;10.43;5.40;;;-1.30;99.90;;;;;;5051187;28;20041;-69
2022/04/03 03:03:39;;;;;;;10.98;5.47;;;-1.30;99.90;;;;;;5039283;28;20116;-69
2022/04/03 03:06:06;;;;;;;11.15;5.07;;;-1.30;99.90;;;;;;5049738;28;20029;-68
2022/04/03 03:08:31;;;;;;;9.63;4.90;;;-1.30;99.90;;;;;;5051284;28;20041;-68
2022/04/03 03:10:57;;;;;;;9.45;4.90;;;-1.30;99.90;;;;;;5052825;28;20036;-68
2022/04/03 03:13:23;;;;;;;9.23;5.18;;;-1.40;99.90;;;;;;5038685;28;20029;-68
2022/04/03 03:15:48;;;;;;;7.85;4.70;;;-1.40;99.90;;;;;;5055831;28;20044;-68
2022/04/03 03:18:14;;;;;;;11.20;5.07;;;-1.40;99.90;;;;;;5057723;28;20081;-69
2022/04/03 03:20:40;;;;;;;9.65;4.40;;;-1.40;99.90;;;;;;5053289;28;20061;-68
2022/04/03 03:23:06;;;;;;;8.60;4.57;;;-1.40;99.90;;;;;;5058184;28;20021;-68
2022/04/03 03:25:31;;;;;;;9.95;5.25;;;-1.30;99.90;;;;;;5055061;28;20118;-68
2022/04/03 03:27:57;;;;;;;11.30;4.80;;;-1.20;99.90;;;;;;5037850;28;20036;-68
2022/04/03 03:30:23;;;;;;;10.30;5.32;;;-1.10;99.90;;;;;;5055743;28;20036;-69
2022/04/03 03:32:49;;;;;;;9.40;4.82;;;-1.00;99.90;;;;;;5056994;28;20507;-69
2022/04/03 03:35:14;;;;;;;8.43;4.65;;;-0.90;99.90;;;;;;5038596;28;20091;-69
2022/04/03 03:37:40;;;;;;;13.52;5.00;;;-0.80;99.90;;;;;;5053953;28;20049;-69
2022/04/03 03:40:11;;;;;;;11.63;4.65;;;-0.70;99.90;;;;;;5050042;28;20043;-68
2022/04/03 03:42:38;;;;;;;9.85;4.85;;;-0.60;99.90;;;;;;5050243;28;20033;-69
2022/04/03 03:45:04;;;;;;;10.43;4.40;;;-0.50;99.90;;;;;;5045557;28;20045;-69
2022/04/03 03:47:31;;;;;;;11.23;5.25;;;-0.50;99.90;;;;;;5050928;28;20126;-68
2022/04/03 03:49:57;;;;;;;10.57;4.82;;;-0.40;99.90;;;;;;5053965;28;20017;-68
2022/04/03 03:52:22;;;;;;;9.73;5.15;;;-0.30;99.90;;;;;;5048749;28;20382;-68
2022/04/03 03:54:48;;;;;;;8.60;4.47;;;-0.30;99.90;;;;;;5053917;28;20101;-68
2022/04/03 03:57:14;;;;;;;9.93;5.18;;;-0.20;99.90;;;;;;5061619;28;20021;-68
2022/04/03 03:59:39;;;;;;;10.95;5.22;;;-0.20;99.90;;;;;;5052062;28;20048;-69
2022/04/03 04:02:05;;;;;;;10.88;4.70;;;-0.20;99.90;;;;;;5056223;28;20031;-68
2022/04/03 04:04:31;;;;;;;9.93;5.00;;;-0.10;99.90;;;;;;5065302;28;20029;-69
2022/04/03 04:06:57;;;;;;;11.57;4.80;;;-0.10;99.90;;;;;;5056906;28;21121;-69
2022/04/03 04:09:23;;;;;;;9.18;4.47;;;0.00;99.90;;;;;;5057647;28;20021;-68
2022/04/03 04:11:48;;;;;;;9.38;4.82;;;0.00;99.90;;;;;;5064086;28;20555;-68
2022/04/03 04:14:14;;;;;;;10.45;4.88;;;0.00;99.90;;;;;;5044524;28;20025;-68
2022/04/03 04:16:42;;;;;;;12.18;4.88;;;0.10;99.90;;;;;;5061886;28;20026;-68
2022/04/03 04:19:08;;;;;;;9.13;4.57;;;0.10;99.90;;;;;;5028807;28;20047;-69
2022/04/03 04:21:34;;;;;;;10.20;5.32;;;0.10;99.90;;;;;;5054541;28;20096;-69
2022/04/03 04:24:00;;;;;;;9.32;5.10;;;0.20;99.90;;;;;;5049612;28;20025;-68
2022/04/03 04:26:25;;;;;;;9.30;5.00;;;0.30;99.90;;;;;;5034577;28;20041;-68
2022/04/03 04:28:51;;;;;;;12.68;5.20;;;0.30;99.90;;;;;;5055671;28;20033;-68
2022/04/03 04:31:18;;;;;;;10.52;5.20;;;0.30;99.90;;;;;;5055675;28;20055;-67
2022/04/03 04:33:44;;;;;;;10.93;5.28;;;0.40;99.90;;;;;;5052186;28;20025;-68
2022/04/03 04:36:10;;;;;;;11.18;4.53;;;0.40;99.90;;;;;;5051817;28;20041;-68
2022/04/03 04:38:36;;;;;;;13.48;5.00;;;0.40;99.90;;;;;;5055605;28;20521;-68
2022/04/03 04:41:03;;;;;;;9.27;4.47;;;0.40;99.90;;;;;;5048037;28;20101;-69
2022/04/03 04:43:28;;;;;;;8.23;4.30;;;0.40;99.90;;;;;;5052817;28;20052;-68
2022/04/03 04:45:54;;;;;;;9.63;4.50;;;0.30;99.90;;;;;;5050822;28;20731;-69
2022/04/03 04:48:20;;;;;;;10.27;4.43;;;0.20;99.90;;;;;;5049022;28;20060;-69
2022/04/03 04:50:45;;;;;;;8.27;4.00;;;0.20;99.90;;;;;;5030478;28;20033;-69
2022/04/03 04:53:11;;;;;;;10.77;4.00;;;0.20;99.90;;;;;;5050267;28;20049;-69
2022/04/03 04:55:37;;;;;;;11.82;4.70;;;0.10;99.90;;;;;;5050579;28;20082;-68
2022/04/03 04:58:03;;;;;;;7.82;3.78;;;0.00;99.90;;;;;;5050483;28;20124;-69
2022/04/03 05:00:31;;;;;;;9.57;4.45;;;-0.10;99.90;;;;;;5054973;28;20053;-68
2022/04/03 05:02:58;;;;;;;8.13;4.28;;;-0.20;99.90;;;;;;5052674;28;20029;-68
2022/04/03 05:05:24;;;;;;;11.25;4.72;;;-0.20;99.90;;;;;;5053654;28;20435;-68
2022/04/03 05:07:53;;;;;;;7.90;4.18;;;-0.30;99.90;;;;;;5050113;28;20508;-68
2022/04/03 05:10:20;;;;;;;11.13;4.78;;;-0.40;99.90;;;;;;5054484;28;20040;-68
2022/04/03 05:12:46;;;;;;;9.07;4.30;;;-0.50;99.90;;;;;;5046007;28;20059;-68
2022/04/03 05:15:12;;;;;;;9.68;4.53;;;-0.60;99.90;;;;;;5049982;28;20033;-68
2022/04/03 05:17:43;;;;;;;9.00;4.65;;;-0.60;99.90;;;;;;5047974;28;20047;-68
2022/04/03 05:20:13;;;;;;;9.25;4.50;;;-0.70;99.90;;;;;;5052507;28;20023;-68
2022/04/03 05:22:40;;;;;;;10.07;4.38;;;-0.70;99.90;;;;;;5053312;28;20056;-68
2022/04/03 05:25:06;;;;;;;9.00;4.40;;;-0.80;99.90;;;;;;5049596;28;20029;-68
2022/04/03 05:27:32;;;;;;;9.43;4.65;;;-0.80;99.90;;;;;;5052571;28;20037;-69
2022/04/03 05:29:58;;;;;;;13.35;6.80;;;-0.80;99.90;;;;;;5058948;28;20472;-68
2022/04/03 05:32:26;;;;;;;19.88;10.80;;;-0.80;99.90;;;;;;5057648;28;20135;-69
2022/04/03 05:34:52;;;;;;;17.40;8.05;;;-0.80;99.90;;;;;;5049545;28;20123;-69
2022/04/03 05:37:21;;;;;;;9.80;5.28;;;-0.80;99.90;;;;;;5049637;28;20017;-69
2022/04/03 05:39:47;;;;;;;8.93;4.75;;;-0.80;99.90;;;;;;5056300;28;20045;-69
2022/04/03 05:42:13;;;;;;;8.77;4.45;;;-0.90;99.90;;;;;;5049081;28;20029;-69
2022/04/03 05:44:39;;;;;;;9.43;4.85;;;-0.80;99.90;;;;;;5048077;28;20154;-69
2022/04/03 05:47:05;;;;;;;8.57;4.50;;;-0.80;99.90;;;;;;5044161;28;20056;-69
2022/04/03 05:49:31;;;;;;;11.38;6.43;;;-0.80;99.90;;;;;;5051993;28;20025;-69
2022/04/03 05:51:56;;;;;;;12.73;7.13;;;-0.80;99.90;;;;;;5034145;28;20029;-68
2022/04/03 05:54:22;;;;;;;11.82;8.10;;;-0.80;99.90;;;;;;5049209;28;20508;-69
2022/04/03 05:56:49;;;;;;;13.50;7.45;;;-0.80;99.90;;;;;;5053046;28;20489;-68
2022/04/03 05:59:15;;;;;;;15.65;8.02;;;-0.70;99.90;;;;;;5043658;28;20036;-68
2022/04/03 06:01:41;;;;;;;13.90;8.10;;;-0.70;99.90;;;;;;5055666;28;20101;-68
2022/04/03 06:04:07;;;;;;;24.13;14.77;;;-0.60;99.90;;;;;;5052387;28;20029;-69
2022/04/03 06:06:32;;;;;;;16.35;10.10;;;-0.60;99.90;;;;;;5058069;28;20059;-68
2022/04/03 06:08:58;;;;;;;30.35;16.42;;;0.10;99.90;;;;;;5051753;28;20052;-69
2022/04/03 06:11:24;;;;;;;8.52;4.97;;;0.40;99.90;;;;;;5060010;28;20377;-69
2022/04/03 06:13:49;;;;;;;9.88;4.50;;;0.60;99.90;;;;;;5059778;28;20059;-69
2022/04/03 06:16:15;;;;;;;8.88;4.43;;;0.70;99.90;;;;;;5042019;28;20461;-69
2022/04/03 06:18:41;;;;;;;8.73;4.28;;;0.90;99.90;;;;;;5053212;28;20398;-69
2022/04/03 06:21:08;;;;;;;9.32;3.67;;;1.10;99.90;;;;;;5047840;28;20022;-69
2022/04/03 06:23:33;;;;;;;7.95;3.78;;;1.20;99.90;;;;;;5039062;28;20044;-70
2022/04/03 06:25:59;;;;;;;7.95;3.85;;;1.30;99.90;;;;;;5052187;28;20493;-69
2022/04/03 06:28:25;;;;;;;9.80;4.07;;;1.70;99.90;;;;;;5053576;28;20021;-69
2022/04/03 06:30:52;;;;;;;8.88;4.32;;;2.10;99.90;;;;;;5049528;28;20026;-69
2022/04/03 06:33:18;;;;;;;7.18;3.42;;;2.00;99.90;;;;;;5053424;28;20032;-69
2022/04/03 06:35:44;;;;;;;9.43;3.53;;;1.90;99.90;;;;;;5050869;28;20033;-69
2022/04/03 06:38:11;;;;;;;8.43;4.03;;;1.80;99.90;;;;;;5056656;28;20041;-70
2022/04/03 06:40:40;;;;;;;6.85;3.35;;;1.70;99.90;;;;;;5054538;28;20064;-70
2022/04/03 06:43:06;;;;;;;7.57;3.97;;;1.80;99.90;;;;;;5055422;28;20045;-69
2022/04/03 06:45:32;;;;;;;9.07;3.90;;;1.90;99.90;;;;;;5053908;28;20079;-69
2022/04/03 06:48:02;;;;;;;9.95;3.90;;;2.00;99.90;;;;;;5051274;28;20740;-69
2022/04/03 06:50:28;;;;;;;7.80;4.05;;;1.90;99.90;;;;;;5051774;28;20100;-69
2022/04/03 06:52:54;;;;;;;8.02;4.30;;;2.70;99.90;;;;;;5031958;28;20033;-69
2022/04/03 06:55:20;;;;;;;8.63;4.03;;;3.30;99.90;;;;;;5052174;28;20056;-69
2022/04/03 06:57:46;;;;;;;8.88;3.75;;;4.00;99.90;;;;;;5049497;28;20052;-70
2022/04/03 07:00:13;;;;;;;8.10;3.42;;;4.70;99.90;;;;;;5050728;28;20045;-70
2022/04/03 07:02:39;;;;;;;6.55;2.63;;;4.90;99.90;;;;;;5053274;28;20067;-70
2022/04/03 07:05:05;;;;;;;7.25;2.75;;;4.80;99.90;;;;;;5030096;28;20025;-71
2022/04/03 07:07:30;;;;;;;7.22;2.97;;;4.80;99.90;;;;;;5048780;28;20035;-70
2022/04/03 07:09:56;;;;;;;8.23;3.08;;;5.30;99.90;;;;;;5021523;28;20053;-70
2022/04/03 07:12:22;;;;;;;8.00;3.00;;;5.50;99.90;;;;;;5046569;28;20029;-68
2022/04/03 07:14:49;;;;;;;8.48;2.58;;;5.80;99.90;;;;;;5048982;28;20361;-71
2022/04/03 07:17:16;;;;;;;6.57;2.40;;;5.80;99.90;;;;;;5059736;28;20051;-69
2022/04/03 07:19:41;;;;;;;8.40;2.60;;;5.70;99.90;;;;;;5058647;28;20413;-70
2022/04/03 07:22:07;;;;;;;7.45;2.75;;;5.70;99.90;;;;;;5049848;28;20018;-69
2022/04/03 07:24:33;;;;;;;7.22;2.30;;;5.60;99.90;;;;;;5048381;28;20110;-69
2022/04/03 07:26:58;;;;;;;7.68;2.75;;;5.70;99.90;;;;;;5050256;28;20028;-69
2022/04/03 07:29:25;;;;;;;8.88;2.78;;;5.90;99.90;;;;;;5049890;28;20033;-70
2022/04/03 07:31:51;;;;;;;8.10;2.63;;;6.40;99.90;;;;;;5051876;28;20037;-70
2022/04/03 07:34:17;;;;;;;6.00;2.15;;;6.50;99.90;;;;;;5038490;28;20037;-69
2022/04/03 07:36:43;;;;;;;6.38;2.10;;;7.10;99.90;;;;;;5051784;28;20029;-69
2022/04/03 07:39:09;;;;;;;8.07;2.33;;;8.10;99.90;;;;;;5052363;28;20132;-70
2022/04/03 07:41:36;;;;;;;7.05;2.20;;;9.20;99.90;;;;;;5035916;28;20029;-70
2022/04/03 07:44:05;;;;;;;6.95;1.98;;;10.20;99.90;;;;;;5049635;28;20036;-70
2022/04/03 07:46:31;;;;;;;10.98;2.10;;;10.60;99.90;;;;;;5049887;28;20053;-70
2022/04/03 07:48:57;;;;;;;7.38;1.75;;;11.50;99.90;;;;;;5050619;28;20022;-71
2022/04/03 07:51:23;;;;;;;6.22;1.80;;;12.00;96.50;;;;;;5050582;28;20113;-70
2022/04/03 07:53:49;;;;;;;9.30;1.90;;;12.90;93.30;;;;;;5055828;28;20202;-70
2022/04/03 07:56:16;;;;;;;5.82;1.30;;;12.90;85.40;;;;;;5049921;28;20161;-70
2022/04/03 07:58:42;;;;;;;4.97;1.27;;;13.10;79.60;;;;;;5045787;28;20060;-70
2022/04/03 08:01:08;;;;;;;10.20;1.50;;;13.70;76.10;;;;;;5048922;28;20045;-70
2022/04/03 08:03:33;;;;;;;6.40;1.42;;;14.20;66.90;;;;;;5046861;28;20029;-70
2022/04/03 08:05:59;;;;;;;4.93;1.30;;;14.10;65.30;;;;;;5052401;28;20025;-70
2022/04/03 08:08:25;;;;;;;4.93;1.25;;;14.50;60.50;;;;;;5049451;28;20108;-70
2022/04/03 08:10:50;;;;;;;5.63;1.27;;;15.30;58.30;;;;;;5051671;28;20032;-71
2022/04/03 08:13:16;;;;;;;7.05;1.50;;;15.20;55.30;;;;;;5047663;28;20043;-71
2022/04/03 08:15:42;;;;;;;8.32;1.50;;;15.70;57.90;;;;;;5050335;28;20044;-70
2022/04/03 08:18:09;;;;;;;5.75;1.40;;;16.40;55.20;;;;;;5053591;28;20481;-70
2022/04/03 08:20:35;;;;;;;5.43;1.40;;;17.00;53.10;;;;;;5047488;28;20498;-70
2022/04/03 08:23:03;;;;;;;4.78;1.30;;;16.80;51.20;;;;;;5049871;28;20190;-70
2022/04/03 08:25:31;;;;;;;5.32;1.10;;;16.90;52.30;;;;;;5052626;28;20045;-69
2022/04/03 08:27:57;;;;;;;5.68;1.10;;;17.10;51.20;;;;;;5048132;28;20473;-70
2022/04/03 08:30:28;;;;;;;7.10;1.48;;;17.40;51.00;;;;;;5043622;28;20021;-71
2022/04/03 08:32:55;;;;;;;10.88;1.45;;;15.70;50.20;;;;;;5054310;28;20017;-70
2022/04/03 08:35:24;;;;;;;5.70;1.10;;;14.60;55.00;;;;;;5047029;28;20021;-70
2022/04/03 08:37:50;;;;;;;7.07;1.33;;;13.60;57.10;;;;;;5055357;28;20049;-69
2022/04/03 08:40:17;;;;;;;5.80;1.30;;;14.60;61.10;;;;;;5049679;28;20024;-70
2022/04/03 08:42:43;;;;;;;9.38;1.60;;;14.90;58.60;;;;;;5050740;28;20009;-70
2022/04/03 08:45:11;;;;;;;6.80;1.42;;;15.70;57.20;;;;;;5046259;28;20056;-70
2022/04/03 08:47:48;;;;;;;6.18;1.27;;;15.90;54.80;;;;;;5045908;28;20029;-70
2022/04/03 08:50:15;;;;;;;6.80;1.27;;;15.90;53.80;;;;;;5047512;28;20037;-69
2022/04/03 08:52:49;;;;;;;6.00;1.30;;;15.90;53.70;;;;;;5047010;28;20021;-70
2022/04/03 08:55:16;;;;;;;5.18;1.00;;;14.50;50.30;;;;;;5051878;28;20055;-70
2022/04/03 08:57:43;;;;;;;6.10;1.17;;;14.40;53.70;;;;;;5058771;28;20044;-70
2022/04/03 09:00:10;;;;;;;5.47;1.00;;;15.40;55.30;;;;;;5056432;28;20059;-83
2022/04/03 09:02:36;;;;;;;4.18;1.00;;;15.50;53.50;;;;;;5040790;28;20029;-70
2022/04/03 09:05:04;;;;;;;5.78;1.42;;;15.50;51.10;;;;;;5052995;28;20028;-69
2022/04/03 09:07:29;;;;;;;6.30;1.20;;;15.30;52.30;;;;;;5055774;28;20100;-79
2022/04/03 09:10:10;;;;;;;7.10;1.30;;;15.50;50.80;;;;;;5037027;28;20068;-79
2022/04/03 09:12:45;;;;;;;5.82;1.20;;;16.10;51.50;;;;;;5080895;28;20113;-71
2022/04/03 09:15:14;;;;;;;5.38;1.10;;;14.70;53.00;;;;;;5057787;28;20402;-70
2022/04/03 09:17:44;;;;;;;6.38;1.25;;;12.70;54.70;;;;;;5054903;28;20425;-70
2022/04/03 09:20:15;;;;;;;8.27;1.20;;;11.90;59.80;;;;;;5081307;28;20021;-71
2022/04/03 09:22:43;;;;;;;4.60;1.10;;;11.10;65.80;;;;;;5053950;28;20057;-71
2022/04/03 09:25:13;;;;;;;5.05;1.52;;;11.80;86.70;;;;;;5056659;28;20108;-70
2022/04/03 09:27:48;;;;;;;5.90;1.40;;;12.70;91.80;;;;;;5054340;28;20025;-70
2022/04/03 09:30:15;;;;;;;4.68;1.10;;;13.00;91.80;;;;;;5051996;28;20079;-71
2022/04/03 09:32:51;;;;;;;4.97;1.20;;;13.10;72.10;;;;;;5057618;28;20060;-71
2022/04/03 09:35:20;;;;;;;5.78;1.20;;;13.00;67.60;;;;;;5059739;28;20033;-71
2022/04/03 09:38:14;;;;;;;5.32;1.40;;;13.20;73.60;;;;;;5058944;28;20051;-72
2022/04/03 09:40:42;;;;;;;9.20;1.40;;;13.50;62.30;;;;;;5060696;28;20104;-71
2022/04/03 09:43:20;;;;;;;5.35;1.08;;;13.60;62.50;;;;;;5067076;28;20369;-71
2022/04/03 09:46:00;;;;;;;4.72;1.20;;;14.20;55.50;;;;;;5079898;28;20021;-71
2022/04/03 09:48:40;;;;;;;5.13;1.00;;;13.50;54.50;;;;;;5062161;28;20036;-71
2022/04/03 09:51:11;;;;;;;5.60;1.08;;;12.90;59.90;;;;;;5059002;28;20063;-71
2022/04/03 09:54:00;;;;;;;5.03;1.10;;;12.10;64.20;;;;;;5060831;28;20485;-70
2022/04/03 09:56:29;;;;;;;6.63;1.00;;;11.10;68.40;;;;;;5060301;28;20032;-72
2022/04/03 09:58:59;;;;;;;4.47;1.10;;;9.80;90.10;;;;;;5062763;28;20037;-73
2022/04/03 10:01:30;;;;;;;8.20;1.30;;;8.90;99.90;;;;;;5064388;28;20047;-73
2022/04/03 10:04:00;;;;;;;5.57;1.23;;;8.60;99.90;;;;;;5057849;28;20088;-73
2022/04/03 10:06:26;;;;;;;5.03;1.10;;;8.60;99.90;;;;;;5065193;28;20017;-73
2022/04/03 10:08:52;;;;;;;4.05;1.17;;;8.50;99.90;;;;;;5045930;28;20508;-73
2022/04/03 10:11:19;;;;;;;7.72;1.50;;;8.30;99.90;;;;;;5063498;28;20051;-72
2022/04/03 10:13:46;;;;;;;5.90;1.42;;;8.50;99.90;;;;;;5063655;28;20032;-72
2022/04/03 10:16:13;;;;;;;5.45;1.40;;;8.60;99.90;;;;;;5071105;28;20043;-73
2022/04/03 10:18:43;;;;;;;6.20;1.13;;;8.70;99.90;;;;;;5079017;28;20052;-73
2022/04/03 10:21:23;;;;;;;6.07;1.70;;;8.90;99.90;;;;;;5053896;28;20029;-72
2022/04/03 10:23:54;;;;;;;6.40;1.60;;;8.80;99.90;;;;;;5062612;28;20096;-72
2022/04/03 10:26:22;;;;;;;6.18;1.50;;;9.00;99.90;;;;;;5062390;28;20020;-73
2022/04/03 10:28:53;;;;;;;5.82;1.55;;;8.70;99.90;;;;;;5062096;28;20028;-73
2022/04/03 10:31:19;;;;;;;4.55;1.30;;;8.60;99.90;;;;;;5063769;28;20090;-73
2022/04/03 10:33:51;;;;;;;5.20;1.33;;;8.50;99.90;;;;;;5064307;28;20029;-73
2022/04/03 10:36:25;;;;;;;6.18;1.20;;;8.50;99.90;;;;;;5058450;28;20028;-73
2022/04/03 10:39:08;;;;;;;6.75;2.50;;;8.40;99.90;;;;;;5059604;28;20029;-72
2022/04/03 10:41:36;;;;;;;10.45;2.10;;;8.50;99.90;;;;;;5062724;28;20037;-73
2022/04/03 10:44:22;;;;;;;4.18;1.25;;;8.30;99.90;;;;;;5062431;28;20029;-73
2022/04/03 10:47:03;;;;;;;4.85;1.33;;;8.30;99.90;;;;;;5062623;28;20067;-73
2022/04/03 10:49:46;;;;;;;5.00;1.30;;;8.10;99.90;;;;;;5064447;28;20039;-74
2022/04/03 10:52:54;;;;;;;4.80;1.25;;;8.10;99.90;;;;;;5062159;28;20032;-73
2022/04/03 10:55:21;;;;;;;5.78;1.20;;;8.20;99.90;;;;;;5059363;28;20033;-73
2022/04/03 10:57:48;;;;;;;6.07;1.13;;;8.40;99.90;;;;;;5063523;28;20025;-73
2022/04/03 11:00:20;;;;;;;5.93;1.20;;;8.20;99.90;;;;;;5062549;28;20044;-73
2022/04/03 11:02:57;;;;;;;4.38;1.05;;;10.00;99.90;;;;;;5065238;28;20112;-74
2022/04/03 11:05:29;;;;;;;5.47;1.27;;;12.80;84.30;;;;;;5061855;28;20037;-73
2022/04/03 11:08:18;;;;;;;6.93;1.10;;;14.30;68.60;;;;;;5062338;28;20033;-73
2022/04/03 11:10:52;;;;;;;6.95;1.20;;;15.90;53.30;;;;;;5062330;28;20024;-73
2022/04/03 11:13:22;;;;;;;4.95;1.10;;;17.60;55.50;;;;;;5070867;28;20067;-72
2022/04/03 11:15:54;;;;;;;7.93;1.20;;;17.60;48.40;;;;;;5073416;28;20059;-72
2022/04/03 11:18:36;;;;;;;4.45;1.15;;;16.80;48.60;;;;;;5062546;28;20041;-72
2022/04/03 11:21:04;;;;;;;;;;;15.70;48.70;;;;;;5062848;28;20057;-73
2022/04/03 11:23:30;;;;;;;4.10;0.95;;;14.70;48.60;;;;;;5062170;28;20261;-72
2022/04/03 11:25:57;;;;;;;6.35;1.10;;;13.80;51.40;;;;;;5063134;28;20060;-72
2022/04/03 11:28:23;;;;;;;3.78;0.85;;;13.30;56.60;;;;;;5071943;28;20049;-72
2022/04/03 11:30:50;;;;;;;5.88;1.00;;;12.40;63.80;;;;;;5042346;28;20056;-72
2022/04/03 11:33:16;;;;;;;4.20;1.02;;;12.00;68.30;;;;;;5042446;28;20033;-73
2022/04/03 11:35:42;;;;;;;5.45;1.13;;;11.60;70.20;;;;;;5067559;28;20028;-72
2022/04/03 11:38:09;;;;;;;4.85;1.05;;;11.40;97.70;;;;;;5068715;28;20183;-72
2022/04/03 11:40:35;;;;;;;5.18;1.42;;;11.00;95.90;;;;;;5063063;28;20029;-72
2022/04/03 11:43:09;;;;;;;4.95;0.95;;;10.60;99.50;;;;;;5062112;28;20017;-72
2022/04/03 11:45:36;;;;;;;5.28;1.00;;;10.40;99.90;;;;;;5068524;28;20449;-72
2022/04/03 11:48:22;;;;;;;5.20;0.95;;;10.30;97.40;;;;;;5064584;28;20025;-72
2022/04/03 11:50:50;;;;;;;5.70;1.20;;;10.20;98.10;;;;;;5060670;28;20040;-72
2022/04/03 11:53:15;;;;;;;6.90;1.30;;;9.80;99.50;;;;;;5058341;28;20047;-71
2022/04/03 11:55:41;;;;;;;5.20;1.15;;;9.90;99.80;;;;;;5064907;28;20056;-71
2022/04/03 11:58:07;;;;;;;4.53;1.25;;;9.40;99.30;;;;;;5070589;28;20120;-72
2022/04/03 12:00:34;;;;;;;5.20;1.60;;;9.60;99.90;;;;;;5059767;28;20045;-71
2022/04/03 12:03:00;;;;;;;4.97;1.33;;;8.90;99.90;;;;;;5060952;28;20046;-72
2022/04/03 12:05:26;;;;;;;5.65;1.23;;;9.10;99.90;;;;;;5060986;28;20116;-71
2022/04/03 12:07:52;;;;;;;5.30;1.20;;;8.30;99.90;;;;;;5062616;28;20362;-71
2022/04/03 12:10:28;;;;;;;5.68;1.38;;;8.50;99.90;;;;;;5040620;28;20060;-71
2022/04/03 12:12:58;;;;;;;7.38;1.60;;;8.10;99.90;;;;;;5052865;28;20033;-72
2022/04/03 12:15:29;;;;;;;6.45;1.58;;;8.20;99.90;;;;;;5062661;28;20025;-71
2022/04/03 12:17:56;;;;;;;5.15;1.40;;;8.20;99.90;;;;;;5071423;28;20044;-71
2022/04/03 12:20:23;;;;;;;6.15;1.42;;;7.80;99.90;;;;;;5072147;28;20032;-71
2022/04/03 12:22:52;;;;;;;5.75;1.40;;;7.70;99.90;;;;;;5060776;28;20052;-71
2022/04/03 12:25:19;;;;;;;4.55;1.25;;;7.60;99.90;;;;;;5060741;28;20483;-71
2022/04/03 12:27:45;;;;;;;7.13;1.00;;;7.50;99.90;;;;;;5041211;28;20029;-71
2022/04/03 12:30:11;;;;;;;7.05;1.20;;;7.60;99.90;;;;;;5054859;28;20014;-72
2022/04/03 12:32:40;;;;;;;4.55;1.10;;;7.50;99.90;;;;;;5070433;28;20025;-71
2022/04/03 12:35:10;;;;;;;5.82;1.20;;;7.50;99.90;;;;;;5061380;28;20086;-71
2022/04/03 12:37:40;;;;;;;4.43;1.02;;;7.70;99.90;;;;;;5059695;28;20115;-71
2022/04/03 12:40:15;;;;;;;4.97;1.40;;;7.70;99.90;;;;;;5061913;28;20028;-71
2022/04/03 12:42:45;;;;;;;4.88;1.50;;;7.70;99.90;;;;;;5059188;28;20021;-71
2022/04/03 12:45:22;;;;;;;6.90;1.30;;;7.70;99.90;;;;;;5061715;28;20108;-71
2022/04/03 12:47:58;;;;;;;5.00;1.08;;;7.70;99.90;;;;;;5060983;28;20028;-70
2022/04/03 12:50:38;;;;;;;4.93;1.02;;;7.90;99.90;;;;;;5061062;28;20380;-70